Time;durP1;ratioP1;P1;durP2;ratioP2;P2;SDS_P1;SDS_P2;PMS_P1;PMS_P2;Temp;Humidity;BMP_temperature;BMP_pressure;BME280_temperature;BME280_humidity;BME280_pressure;Samples;Min_cycle;Max_cycle;Signal;HPM_P1;HPM_P2
2021/03/13 00:01:04;;;;;;;11.37;2.50;;;7.20;99.90;;;;;;5072849;28;20589;-64
2021/03/13 00:03:31;;;;;;;11.23;1.90;;;7.20;99.90;;;;;;5073184;28;20762;-64
2021/03/13 00:05:57;;;;;;;12.30;2.50;;;7.30;99.90;;;;;;5072384;28;20554;-64
2021/03/13 00:08:24;;;;;;;12.07;2.30;;;7.30;99.90;;;;;;5069324;28;20491;-64
2021/03/13 00:10:51;;;;;;;11.07;2.10;;;7.30;99.90;;;;;;5072575;28;20435;-65
2021/03/13 00:13:17;;;;;;;15.30;1.97;;;7.40;99.90;;;;;;5072351;28;20982;-63
2021/03/13 00:15:45;;;;;;;13.63;1.90;;;7.40;99.90;;;;;;5072024;28;20538;-65
2021/03/13 00:18:12;;;;;;;11.97;2.17;;;7.40;99.90;;;;;;5072160;28;20479;-64
2021/03/13 00:20:40;;;;;;;11.53;2.27;;;7.40;99.90;;;;;;5072950;28;20443;-64
2021/03/13 00:23:07;;;;;;;15.97;2.67;;;7.40;99.90;;;;;;5084959;28;20470;-64
2021/03/13 00:25:36;;;;;;;13.03;2.00;;;7.40;99.90;;;;;;5092976;28;20442;-65
2021/03/13 00:28:03;;;;;;;11.60;1.87;;;7.40;99.90;;;;;;5072887;28;20482;-64
2021/03/13 00:30:31;;;;;;;12.60;2.00;;;7.40;99.90;;;;;;5072180;28;20534;-63
2021/03/13 00:33:01;;;;;;;14.60;2.57;;;7.40;99.90;;;;;;5079638;28;20477;-64
2021/03/13 00:35:29;;;;;;;14.93;2.83;;;7.40;99.90;;;;;;5076645;28;20478;-64
2021/03/13 00:37:56;;;;;;;10.23;2.03;;;7.30;99.90;;;;;;5071713;28;20477;-64
2021/03/13 00:40:25;;;;;;;16.90;2.30;;;7.30;99.90;;;;;;5071744;28;20534;-64
2021/03/13 00:42:52;;;;;;;11.17;2.43;;;7.30;99.90;;;;;;5071057;28;20545;-64
2021/03/13 00:45:21;;;;;;;12.13;2.00;;;7.30;99.90;;;;;;5068630;28;20530;-64
2021/03/13 00:47:47;;;;;;;10.30;2.70;;;7.30;99.90;;;;;;5084239;28;20525;-63
2021/03/13 00:50:18;;;;;;;9.93;2.30;;;7.30;99.90;;;;;;5067884;28;20471;-65
2021/03/13 00:52:46;;;;;;;9.73;2.00;;;7.30;99.90;;;;;;5059411;28;20475;-65
2021/03/13 00:55:14;;;;;;;19.80;3.37;;;7.20;99.90;;;;;;5070837;28;20479;-64
2021/03/13 00:57:41;;;;;;;13.37;2.13;;;7.30;99.90;;;;;;5070896;28;20528;-64
2021/03/13 01:00:09;;;;;;;11.63;2.37;;;7.30;99.90;;;;;;5071989;28;20536;-65
2021/03/13 01:02:36;;;;;;;12.10;2.13;;;7.30;99.90;;;;;;5071935;28;20520;-64
2021/03/13 01:05:03;;;;;;;9.47;2.13;;;7.30;99.90;;;;;;5071573;28;20533;-64
2021/03/13 01:07:30;;;;;;;9.87;2.50;;;7.30;99.90;;;;;;5071209;28;20496;-64
2021/03/13 01:09:56;;;;;;;10.70;1.70;;;7.30;99.90;;;;;;5075152;28;20543;-65
2021/03/13 01:12:23;;;;;;;11.47;2.40;;;7.40;99.90;;;;;;5072085;28;21002;-65
2021/03/13 01:14:49;;;;;;;11.00;3.07;;;7.40;99.90;;;;;;5071506;28;20522;-65
2021/03/13 01:17:16;;;;;;;17.80;2.40;;;7.40;99.90;;;;;;5071476;28;20596;-65
2021/03/13 01:19:42;;;;;;;10.40;2.60;;;7.50;99.90;;;;;;5071933;28;20530;-64
2021/03/13 01:22:09;;;;;;;10.10;2.43;;;7.40;99.90;;;;;;5071871;28;20451;-63
2021/03/13 01:24:40;;;;;;;9.50;2.77;;;7.50;99.90;;;;;;5071389;28;20507;-63
2021/03/13 01:27:08;;;;;;;12.77;2.70;;;7.40;99.90;;;;;;5058036;28;20448;-64
2021/03/13 01:29:34;;;;;;;8.97;2.50;;;7.40;99.90;;;;;;5051958;28;20475;-64
2021/03/13 01:32:03;;;;;;;10.23;2.40;;;7.40;99.90;;;;;;5067729;28;20525;-63
2021/03/13 01:34:30;;;;;;;8.13;2.50;;;7.40;99.90;;;;;;5078339;28;20455;-63
2021/03/13 01:36:57;;;;;;;12.27;2.50;;;7.40;99.90;;;;;;5064283;28;20534;-64
2021/03/13 01:39:23;;;;;;;10.07;2.90;;;7.40;99.90;;;;;;5072247;28;20905;-63
2021/03/13 01:41:50;;;;;;;13.53;2.63;;;7.40;99.90;;;;;;5070342;28;20515;-64
2021/03/13 01:44:17;;;;;;;9.50;2.10;;;7.40;99.90;;;;;;5071549;28;20438;-64
2021/03/13 01:46:44;;;;;;;7.90;2.00;;;7.40;99.90;;;;;;5079327;28;20459;-65
2021/03/13 01:49:18;;;;;;;6.73;1.70;;;7.40;99.90;;;;;;5075674;28;20802;-64
2021/03/13 01:51:45;;;;;;;17.43;2.40;;;7.30;99.90;;;;;;5083140;28;20495;-64
2021/03/13 01:54:12;;;;;;;8.60;2.37;;;7.30;99.90;;;;;;5086550;28;20451;-63
2021/03/13 01:56:40;;;;;;;12.10;3.00;;;7.30;99.90;;;;;;5074196;28;20558;-64
2021/03/13 01:59:07;;;;;;;11.37;2.67;;;7.20;99.90;;;;;;5075400;28;20533;-65
2021/03/13 02:01:33;;;;;;;9.57;3.43;;;7.20;99.90;;;;;;5075489;28;20469;-63
2021/03/13 02:04:01;;;;;;;6.60;2.40;;;7.10;99.90;;;;;;5075120;28;20529;-64
2021/03/13 02:06:27;;;;;;;8.00;3.60;;;7.00;99.90;;;;;;5075703;28;20542;-63
2021/03/13 02:09:04;;;;;;;8.93;3.37;;;6.90;99.90;;;;;;5076559;28;20543;-64
2021/03/13 02:11:37;;;;;;;13.23;3.80;;;6.90;99.90;;;;;;5075551;28;20492;-64
2021/03/13 02:14:16;;;;;;;10.90;3.60;;;6.70;99.90;;;;;;5082052;28;20447;-65
2021/03/13 02:16:48;;;;;;;7.63;3.77;;;6.70;99.90;;;;;;5074537;28;20438;-65
2021/03/13 02:19:50;;;;;;;10.93;4.53;;;6.70;99.90;;;;;;5075148;28;20465;-65
2021/03/13 02:22:20;;;;;;;26.70;4.83;;;6.60;99.90;;;;;;5075205;28;20445;-63
2021/03/13 02:25:01;;;;;;;14.13;4.43;;;6.50;99.90;;;;;;5074474;28;20538;-64
2021/03/13 02:27:30;;;;;;;10.90;4.10;;;6.50;99.90;;;;;;5074505;28;20517;-64
2021/03/13 02:30:00;;;;;;;12.70;4.80;;;6.50;99.90;;;;;;5073169;28;20528;-65
2021/03/13 02:32:35;;;;;;;9.80;4.70;;;6.40;99.90;;;;;;5075059;28;20488;-64
2021/03/13 02:35:06;;;;;;;8.40;4.33;;;6.40;99.90;;;;;;5074345;28;20442;-65
2021/03/13 02:37:39;;;;;;;11.73;4.40;;;6.40;99.90;;;;;;5072253;28;20980;-64
2021/03/13 02:40:09;;;;;;;9.73;4.07;;;6.40;99.90;;;;;;5075193;28;20450;-63
2021/03/13 02:42:43;;;;;;;11.97;4.67;;;6.40;99.90;;;;;;5074614;28;20460;-65
2021/03/13 02:45:12;;;;;;;9.17;3.67;;;6.40;99.90;;;;;;5074233;28;20449;-64
2021/03/13 02:47:41;;;;;;;10.70;4.53;;;6.40;99.90;;;;;;5074946;28;20556;-63
2021/03/13 02:50:09;;;;;;;9.50;4.53;;;6.30;99.90;;;;;;5083472;28;20448;-65
2021/03/13 02:52:37;;;;;;;9.70;4.00;;;6.30;99.90;;;;;;5091273;28;20569;-64
2021/03/13 02:55:05;;;;;;;8.10;3.87;;;6.30;99.90;;;;;;5074018;28;20438;-63
2021/03/13 02:57:32;;;;;;;13.13;5.23;;;6.30;99.90;;;;;;5073479;28;20489;-63
2021/03/13 02:59:59;;;;;;;8.67;3.50;;;6.30;99.90;;;;;;5072877;28;20453;-63
2021/03/13 03:02:27;;;;;;;13.33;3.90;;;6.30;99.90;;;;;;5074308;28;20507;-64
2021/03/13 03:04:55;;;;;;;7.70;3.10;;;6.30;99.90;;;;;;5066001;28;20477;-63
2021/03/13 03:07:25;;;;;;;7.00;2.87;;;6.30;99.90;;;;;;5054362;28;20447;-64
2021/03/13 03:09:53;;;;;;;7.33;3.17;;;6.30;99.90;;;;;;5066627;28;20446;-64
2021/03/13 03:12:20;;;;;;;7.90;3.00;;;6.30;99.90;;;;;;5074186;28;20569;-64
2021/03/13 03:14:47;;;;;;;10.27;3.30;;;6.30;99.90;;;;;;5070938;28;20488;-63
2021/03/13 03:17:15;;;;;;;11.53;3.60;;;6.30;99.90;;;;;;5073090;28;20502;-64
2021/03/13 03:19:43;;;;;;;8.53;3.60;;;6.30;99.90;;;;;;5073655;28;20446;-64
2021/03/13 03:22:09;;;;;;;9.53;3.03;;;6.30;99.90;;;;;;5074179;28;20959;-65
2021/03/13 03:24:36;;;;;;;8.13;2.97;;;6.30;99.90;;;;;;5059539;28;20443;-63
2021/03/13 03:27:03;;;;;;;8.07;3.20;;;6.30;99.90;;;;;;5073526;28;20441;-65
2021/03/13 03:29:30;;;;;;;9.40;2.60;;;6.30;99.90;;;;;;5073477;28;20441;-64
2021/03/13 03:31:56;;;;;;;7.13;2.50;;;6.30;99.90;;;;;;5073593;28;20527;-63
2021/03/13 03:34:23;;;;;;;10.20;3.30;;;6.20;99.90;;;;;;5073105;28;20449;-64
2021/03/13 03:36:50;;;;;;;9.13;2.83;;;6.20;99.90;;;;;;5073303;28;20446;-64
2021/03/13 03:39:17;;;;;;;8.23;2.80;;;6.20;99.90;;;;;;5058103;28;20458;-63
2021/03/13 03:41:48;;;;;;;9.27;3.60;;;6.20;99.90;;;;;;5073750;28;20939;-64
2021/03/13 03:44:19;;;;;;;7.77;3.00;;;6.20;99.90;;;;;;5072414;28;20541;-63
2021/03/13 03:46:46;;;;;;;8.50;3.33;;;6.20;99.90;;;;;;5073480;28;20528;-63
2021/03/13 03:49:14;;;;;;;7.90;2.83;;;6.20;99.90;;;;;;5072659;28;20962;-64
2021/03/13 03:51:41;;;;;;;7.93;3.13;;;6.30;99.90;;;;;;5073720;28;20446;-63
2021/03/13 03:54:11;;;;;;;6.70;2.60;;;6.30;99.90;;;;;;5088141;28;21042;-62
2021/03/13 03:56:39;;;;;;;9.03;3.13;;;6.30;99.90;;;;;;5073283;28;20558;-63
2021/03/13 03:59:09;;;;;;;7.33;3.40;;;6.30;99.90;;;;;;5073330;28;20470;-64
2021/03/13 04:01:36;;;;;;;6.20;2.77;;;6.30;99.90;;;;;;5061696;28;20449;-63
2021/03/13 04:04:06;;;;;;;6.87;2.47;;;6.20;99.90;;;;;;5065072;28;20443;-63
2021/03/13 04:06:33;;;;;;;7.73;3.00;;;6.30;99.90;;;;;;5072603;28;20541;-63
2021/03/13 04:09:02;;;;;;;7.30;2.67;;;6.30;99.90;;;;;;5071847;28;20453;-63
2021/03/13 04:11:30;;;;;;;5.90;2.47;;;6.30;99.90;;;;;;5072854;28;20826;-63
2021/03/13 04:13:58;;;;;;;7.30;2.70;;;6.30;99.90;;;;;;5073008;28;20572;-64
2021/03/13 04:16:26;;;;;;;6.57;2.30;;;6.30;99.90;;;;;;5072497;28;20573;-65
2021/03/13 04:18:52;;;;;;;6.43;2.10;;;6.30;99.90;;;;;;5073024;28;20529;-63
2021/03/13 04:21:19;;;;;;;6.27;2.70;;;6.30;99.90;;;;;;5072062;28;20534;-63
2021/03/13 04:23:47;;;;;;;6.10;2.10;;;6.30;99.90;;;;;;5052913;28;21022;-62
2021/03/13 04:26:14;;;;;;;6.70;2.23;;;6.30;99.90;;;;;;5052586;28;20444;-63
2021/03/13 04:28:41;;;;;;;6.00;2.10;;;6.30;99.90;;;;;;5072117;28;20503;-63
2021/03/13 04:31:09;;;;;;;7.57;1.93;;;6.30;99.90;;;;;;5071992;28;20449;-64
2021/03/13 04:33:37;;;;;;;6.60;2.10;;;6.30;99.90;;;;;;5072581;28;20340;-62
2021/03/13 04:36:05;;;;;;;5.43;1.40;;;6.30;99.90;;;;;;5072036;28;20521;-64
2021/03/13 04:38:32;;;;;;;4.90;1.43;;;6.30;99.90;;;;;;5072403;28;20501;-64
2021/03/13 04:40:59;;;;;;;7.27;1.73;;;6.30;99.90;;;;;;5072378;28;20905;-63
2021/03/13 04:43:26;;;;;;;10.87;1.80;;;6.30;99.90;;;;;;5072457;28;20537;-64
2021/03/13 04:45:57;;;;;;;5.33;1.60;;;6.40;99.90;;;;;;5052203;28;20450;-63
2021/03/13 04:48:24;;;;;;;6.50;1.90;;;6.40;99.90;;;;;;5067163;28;20453;-65
2021/03/13 04:50:50;;;;;;;7.00;1.90;;;6.40;99.90;;;;;;5071492;28;20445;-63
2021/03/13 04:53:17;;;;;;;5.93;1.70;;;6.30;99.90;;;;;;5071970;28;20491;-62
2021/03/13 04:55:43;;;;;;;6.63;1.70;;;6.40;99.90;;;;;;5072008;28;20934;-64
2021/03/13 04:58:09;;;;;;;10.43;1.80;;;6.40;99.90;;;;;;5071701;28;21042;-63
2021/03/13 05:00:36;;;;;;;5.70;1.40;;;6.40;99.90;;;;;;5071557;28;20447;-63
2021/03/13 05:03:04;;;;;;;7.60;1.70;;;6.40;99.90;;;;;;5071884;28;20476;-64
2021/03/13 05:05:33;;;;;;;4.83;1.30;;;6.40;99.90;;;;;;5072037;28;20533;-63
2021/03/13 05:08:00;;;;;;;12.03;2.10;;;6.40;99.90;;;;;;5071270;28;20454;-63
2021/03/13 05:10:26;;;;;;;5.40;1.30;;;6.40;99.90;;;;;;5071232;28;20473;-64
2021/03/13 05:12:53;;;;;;;9.93;1.97;;;6.40;99.90;;;;;;5071772;28;20467;-62
2021/03/13 05:15:20;;;;;;;5.47;1.10;;;6.50;99.90;;;;;;5071435;28;20516;-63
2021/03/13 05:17:46;;;;;;;6.53;1.43;;;6.50;99.90;;;;;;5071613;28;20525;-65
2021/03/13 05:20:14;;;;;;;4.90;1.20;;;6.40;99.90;;;;;;5071143;28;20481;-64
2021/03/13 05:22:41;;;;;;;5.27;1.50;;;6.50;99.90;;;;;;5069465;28;20450;-63
2021/03/13 05:25:08;;;;;;;5.43;1.23;;;6.50;99.90;;;;;;5072114;28;20533;-63
2021/03/13 05:27:38;;;;;;;5.83;1.30;;;6.50;99.90;;;;;;5071046;28;20454;-64
2021/03/13 05:30:06;;;;;;;7.80;1.20;;;6.50;99.90;;;;;;5071680;28;20439;-63
2021/03/13 05:32:33;;;;;;;7.90;1.47;;;6.50;99.90;;;;;;5070875;28;20479;-63
2021/03/13 05:35:00;;;;;;;5.60;1.50;;;6.50;99.90;;;;;;5072219;28;20443;-63
2021/03/13 05:37:27;;;;;;;5.97;1.40;;;6.50;99.90;;;;;;5071433;28;20441;-63
2021/03/13 05:39:54;;;;;;;5.20;1.50;;;6.50;99.90;;;;;;5071877;28;20444;-63
2021/03/13 05:42:21;;;;;;;5.57;1.23;;;6.50;99.90;;;;;;5054590;28;20451;-64
2021/03/13 05:44:48;;;;;;;6.77;1.40;;;6.60;99.90;;;;;;5051582;28;20567;-65
2021/03/13 05:47:27;;;;;;;7.33;1.50;;;6.60;99.90;;;;;;5051406;28;20533;-63
2021/03/13 05:50:01;;;;;;;4.40;0.90;;;6.60;99.90;;;;;;5051738;28;20447;-64
2021/03/13 05:52:31;;;;;;;4.90;1.10;;;6.60;99.90;;;;;;5068991;28;20549;-65
2021/03/13 05:54:58;;;;;;;5.27;1.27;;;6.60;99.90;;;;;;5071175;28;20446;-65
2021/03/13 05:57:25;;;;;;;4.97;1.10;;;6.60;99.90;;;;;;5070392;28;20452;-64
2021/03/13 05:59:51;;;;;;;5.30;1.30;;;6.60;99.90;;;;;;5071471;28;20447;-63
2021/03/13 06:02:20;;;;;;;4.57;1.00;;;6.70;99.90;;;;;;5070889;28;20495;-64
2021/03/13 06:04:46;;;;;;;5.00;0.97;;;6.70;99.90;;;;;;5071358;28;20451;-64
2021/03/13 06:07:14;;;;;;;4.50;1.10;;;6.70;99.90;;;;;;5051269;28;20535;-65
2021/03/13 06:09:42;;;;;;;6.10;0.90;;;6.70;99.90;;;;;;5054856;28;20453;-66
2021/03/13 06:12:09;;;;;;;4.47;1.10;;;6.80;99.90;;;;;;5070694;28;20534;-64
2021/03/13 06:14:36;;;;;;;5.27;1.10;;;6.70;99.90;;;;;;5070966;28;20443;-64
2021/03/13 06:17:02;;;;;;;5.90;1.17;;;6.80;99.90;;;;;;5071193;28;20445;-66
2021/03/13 06:19:47;;;;;;;5.07;1.10;;;6.80;99.90;;;;;;5071677;28;20650;-64
2021/03/13 06:22:33;;;;;;;8.23;2.53;;;6.80;99.90;;;;;;5070846;28;20462;-63
2021/03/13 06:25:18;;;;;;;4.70;1.10;;;6.80;99.90;;;;;;5082979;28;20530;-64
2021/03/13 06:27:46;;;;;;;4.90;1.03;;;6.90;99.90;;;;;;5088949;28;20474;-64
2021/03/13 06:30:14;;;;;;;4.27;0.90;;;6.90;99.90;;;;;;5072313;28;20538;-65
2021/03/13 06:32:41;;;;;;;4.90;0.90;;;6.90;99.90;;;;;;5072795;28;20480;-64
2021/03/13 06:35:22;;;;;;;5.20;1.13;;;6.90;99.90;;;;;;5071679;28;20447;-64
2021/03/13 06:37:49;;;;;;;4.97;1.17;;;7.00;99.90;;;;;;5072711;28;20591;-63
2021/03/13 06:40:28;;;;;;;4.47;1.03;;;7.00;99.90;;;;;;5069258;28;20537;-66
2021/03/13 06:42:55;;;;;;;7.50;1.00;;;7.00;99.90;;;;;;5071707;28;20450;-64
2021/03/13 06:45:22;;;;;;;5.60;1.95;;;7.00;99.90;;;;;;5072974;28;20449;-65
2021/03/13 06:47:49;;;;;;;6.10;1.77;;;7.10;99.90;;;;;;5073872;28;20247;-64
2021/03/13 06:50:18;;;;;;;5.80;1.33;;;7.10;99.90;;;;;;5074374;28;20580;-65
2021/03/13 06:52:47;;;;;;;8.10;1.33;;;7.20;99.90;;;;;;5074479;28;20554;-65
2021/03/13 06:55:19;;;;;;;5.40;1.33;;;7.10;99.90;;;;;;5073965;28;20446;-65
2021/03/13 06:57:48;;;;;;;5.67;1.10;;;7.20;99.90;;;;;;5075740;28;20448;-65
2021/03/13 07:00:29;;;;;;;4.97;0.90;;;7.20;99.90;;;;;;5074076;28;20521;-65
2021/03/13 07:03:09;;;;;;;8.70;0.90;;;7.20;99.90;;;;;;5074493;28;20504;-63
2021/03/13 07:05:37;;;;;;;5.70;1.10;;;7.20;99.90;;;;;;5072362;28;20479;-65
2021/03/13 07:08:25;;;;;;;5.40;0.93;;;7.20;99.90;;;;;;5073599;28;20466;-67
2021/03/13 07:10:52;;;;;;;4.20;1.10;;;7.20;99.90;;;;;;5072835;28;20478;-65
2021/03/13 07:13:33;;;;;;;6.73;1.20;;;7.30;99.90;;;;;;5074219;28;20483;-65
2021/03/13 07:16:22;;;;;;;4.40;0.90;;;7.30;99.90;;;;;;5073208;28;20526;-64
2021/03/13 07:18:48;;;;;;;7.03;0.90;;;7.40;99.90;;;;;;5066047;28;20769;-65
2021/03/13 07:21:15;;;;;;;5.70;1.07;;;7.30;99.90;;;;;;5073933;28;20526;-67
2021/03/13 07:23:43;;;;;;;6.97;1.40;;;7.40;99.90;;;;;;5074150;28;20988;-69
2021/03/13 07:26:10;;;;;;;6.13;1.60;;;7.40;99.90;;;;;;5073097;28;20525;-65
2021/03/13 07:28:40;;;;;;;5.40;1.20;;;7.40;99.90;;;;;;5066940;28;20545;-65
2021/03/13 07:31:10;;;;;;;5.90;1.43;;;7.50;99.90;;;;;;5073200;28;20483;-69
2021/03/13 07:33:38;;;;;;;4.40;0.90;;;7.50;99.90;;;;;;5073832;28;20544;-66
2021/03/13 07:36:10;;;;;;;5.77;1.00;;;7.60;99.90;;;;;;5073177;28;20450;-66
2021/03/13 07:38:41;;;;;;;7.53;1.10;;;7.50;99.90;;;;;;5073225;28;20485;-66
2021/03/13 07:41:15;;;;;;;5.30;1.13;;;7.50;99.90;;;;;;5073436;28;20528;-65
2021/03/13 07:43:43;;;;;;;5.87;1.30;;;7.50;99.90;;;;;;5073370;28;20476;-65
2021/03/13 07:46:11;;;;;;;5.73;0.93;;;7.40;99.90;;;;;;5068740;28;20447;-68
2021/03/13 07:48:38;;;;;;;5.07;1.03;;;7.40;99.90;;;;;;5073596;28;20449;-65
2021/03/13 07:51:05;;;;;;;5.03;0.97;;;7.40;99.90;;;;;;5073049;28;21046;-63
2021/03/13 07:53:33;;;;;;;4.90;0.93;;;7.40;99.90;;;;;;5073457;28;20653;-65
2021/03/13 07:56:03;;;;;;;5.20;0.80;;;7.30;99.90;;;;;;5072056;28;20935;-65
2021/03/13 07:58:30;;;;;;;6.90;0.83;;;7.20;99.90;;;;;;5073643;28;20451;-65
2021/03/13 08:00:59;;;;;;;6.70;0.93;;;7.10;99.90;;;;;;5078691;28;20451;-67
2021/03/13 08:03:48;;;;;;;4.40;0.80;;;7.00;99.90;;;;;;5074853;28;20948;-69
2021/03/13 08:06:17;;;;;;;5.10;0.83;;;7.00;99.90;;;;;;5076620;28;20447;-68
2021/03/13 08:08:44;;;;;;;4.60;0.90;;;7.00;99.90;;;;;;5072914;28;20793;-65
2021/03/13 08:11:12;;;;;;;7.13;0.93;;;7.00;99.90;;;;;;5072832;28;20447;-65
2021/03/13 08:13:59;;;;;;;4.40;0.80;;;7.10;99.90;;;;;;5071659;28;20501;-65
2021/03/13 08:16:38;;;;;;;8.97;0.90;;;7.10;99.90;;;;;;5072473;28;20434;-67
2021/03/13 08:19:20;;;;;;;5.00;0.90;;;7.20;99.90;;;;;;5079508;28;20996;-65
2021/03/13 08:21:46;;;;;;;6.17;1.00;;;7.20;99.90;;;;;;5072027;28;20492;-66
2021/03/13 08:24:13;;;;;;;6.47;0.87;;;7.20;99.90;;;;;;5072004;28;21025;-65
2021/03/13 08:27:11;;;;;;;5.43;0.90;;;7.30;99.90;;;;;;5072667;28;20465;-66
2021/03/13 08:30:16;;;;;;;5.87;0.80;;;7.30;99.90;;;;;;5072648;28;20464;-63
2021/03/13 08:33:05;;;;;;;6.70;3.27;;;7.30;99.90;;;;;;5071528;28;20486;-64
2021/03/13 08:35:50;;;;;;;6.03;0.80;;;7.30;99.90;;;;;;5071950;28;20469;-63
2021/03/13 08:38:21;;;;;;;5.70;0.97;;;7.30;99.90;;;;;;5074328;28;20538;-65
2021/03/13 08:40:51;;;;;;;6.07;1.03;;;7.40;99.90;;;;;;5072867;28;20810;-66
2021/03/13 08:43:38;;;;;;;8.87;1.00;;;7.50;99.90;;;;;;5072809;28;20843;-66
2021/03/13 08:46:05;;;;;;;7.20;1.10;;;7.60;99.90;;;;;;5071873;28;20468;-64
2021/03/13 08:48:57;;;;;;;6.17;0.97;;;7.60;99.90;;;;;;5072310;28;20447;-65
2021/03/13 08:51:24;;;;;;;7.43;1.20;;;7.70;99.90;;;;;;5068138;28;20530;-65
2021/03/13 08:53:51;;;;;;;6.80;1.17;;;7.90;99.90;;;;;;5070813;28;20569;-67
2021/03/13 08:56:42;;;;;;;5.87;0.97;;;7.90;99.90;;;;;;5070188;28;20482;-68
2021/03/13 08:59:13;;;;;;;7.40;1.10;;;7.90;99.90;;;;;;5067645;28;20462;-66
2021/03/13 09:01:41;;;;;;;7.47;1.10;;;7.90;99.90;;;;;;5071309;28;20530;-63
2021/03/13 09:04:09;;;;;;;7.80;1.03;;;7.90;99.90;;;;;;5071488;28;20472;-65
2021/03/13 09:06:40;;;;;;;6.10;1.00;;;7.90;99.90;;;;;;5074501;28;20538;-66
2021/03/13 09:09:16;;;;;;;7.10;1.30;;;8.00;99.90;;;;;;5080027;28;20451;-64
2021/03/13 09:11:42;;;;;;;7.40;1.60;;;8.00;99.90;;;;;;5071661;28;20439;-65
2021/03/13 09:14:10;;;;;;;7.30;1.20;;;8.10;99.90;;;;;;5071947;28;20479;-64
2021/03/13 09:16:38;;;;;;;7.50;1.37;;;8.20;99.90;;;;;;5070078;28;20462;-65
2021/03/13 09:19:06;;;;;;;7.43;1.10;;;8.20;99.90;;;;;;5070376;28;20549;-64
2021/03/13 09:21:44;;;;;;;9.47;1.20;;;8.30;99.90;;;;;;5065828;28;20455;-68
2021/03/13 09:24:12;;;;;;;5.60;0.80;;;8.30;99.90;;;;;;5065226;28;20483;-68
2021/03/13 09:26:39;;;;;;;6.07;1.07;;;8.20;99.90;;;;;;5070337;28;20457;-64
2021/03/13 09:29:06;;;;;;;10.13;1.37;;;8.40;99.90;;;;;;5070278;28;20451;-67
2021/03/13 09:31:33;;;;;;;6.60;1.03;;;8.40;99.90;;;;;;5069416;28;20451;-65
2021/03/13 09:34:17;;;;;;;9.63;1.10;;;8.50;99.90;;;;;;5070043;28;20502;-64
2021/03/13 09:36:46;;;;;;;6.60;1.10;;;8.50;99.90;;;;;;5070113;28;20526;-63
2021/03/13 09:39:14;;;;;;;6.80;1.13;;;8.50;99.90;;;;;;5071075;28;20476;-64
2021/03/13 09:41:40;;;;;;;8.37;1.10;;;8.50;99.90;;;;;;5079101;28;20467;-65
2021/03/13 09:44:06;;;;;;;7.70;1.23;;;8.50;99.90;;;;;;5073324;28;20451;-63
2021/03/13 09:46:33;;;;;;;9.40;1.80;;;8.70;99.90;;;;;;5071959;28;20898;-63
2021/03/13 09:49:00;;;;;;;6.63;0.90;;;8.80;99.90;;;;;;5070728;28;20943;-64
2021/03/13 09:51:27;;;;;;;6.40;1.20;;;8.80;99.90;;;;;;5069939;28;20994;-65
2021/03/13 09:53:55;;;;;;;7.60;1.03;;;9.10;99.90;;;;;;5070879;28;20475;-64
2021/03/13 09:56:31;;;;;;;10.87;1.60;;;9.10;99.90;;;;;;5071344;28;20858;-66
2021/03/13 09:59:00;;;;;;;12.23;2.33;;;9.10;99.90;;;;;;5066323;28;20808;-64
2021/03/13 10:01:27;;;;;;;10.33;1.30;;;9.40;99.90;;;;;;5070839;28;20547;-64
2021/03/13 10:03:53;;;;;;;11.23;1.50;;;9.50;99.90;;;;;;5070812;28;20581;-66
2021/03/13 10:06:20;;;;;;;9.30;1.40;;;9.30;99.90;;;;;;5082067;28;20631;-64
2021/03/13 10:08:46;;;;;;;9.07;3.13;;;8.80;99.90;;;;;;5074958;28;20443;-68
2021/03/13 10:11:14;;;;;;;8.37;1.73;;;8.20;99.90;;;;;;5081372;28;20833;-64
2021/03/13 10:13:40;;;;;;;12.53;3.20;;;8.10;99.90;;;;;;5080576;28;20569;-64
2021/03/13 10:16:13;;;;;;;9.33;2.17;;;8.00;99.90;;;;;;5068523;28;20676;-64
2021/03/13 10:18:39;;;;;;;10.10;2.00;;;8.30;99.90;;;;;;5068203;28;20458;-63
2021/03/13 10:21:07;;;;;;;9.30;1.87;;;8.60;99.90;;;;;;5074290;28;20471;-63
2021/03/13 10:23:35;;;;;;;7.90;1.50;;;8.90;99.90;;;;;;5074644;28;20450;-64
2021/03/13 10:26:03;;;;;;;8.57;1.37;;;9.00;99.90;;;;;;5074632;28;20569;-63
2021/03/13 10:28:33;;;;;;;8.13;1.50;;;9.40;99.90;;;;;;5074618;28;20523;-64
2021/03/13 10:31:08;;;;;;;6.20;1.30;;;11.80;99.90;;;;;;5074705;28;20533;-67
2021/03/13 10:33:35;;;;;;;9.70;1.80;;;14.00;99.90;;;;;;5074355;28;20472;-64
2021/03/13 10:36:01;;;;;;;7.77;1.83;;;14.10;99.90;;;;;;5074371;28;20497;-64
2021/03/13 10:38:28;;;;;;;8.63;1.73;;;14.70;99.90;;;;;;5074519;28;20439;-64
2021/03/13 10:40:55;;;;;;;6.97;1.60;;;14.00;99.90;;;;;;5074054;28;20446;-64
2021/03/13 10:43:24;;;;;;;8.83;1.90;;;15.60;99.90;;;;;;5074716;28;20822;-66
2021/03/13 10:46:22;;;;;;;8.27;2.10;;;14.20;99.90;;;;;;5074031;28;20522;-66
2021/03/13 10:49:12;;;;;;;14.03;2.03;;;13.10;99.90;;;;;;5073770;28;20516;-64
2021/03/13 10:51:42;;;;;;;28.87;11.13;;;12.20;99.90;;;;;;5061242;28;20450;-65
2021/03/13 10:54:24;;;;;;;9.10;2.17;;;11.10;99.90;;;;;;5073672;28;20489;-64
2021/03/13 10:56:51;;;;;;;11.77;1.73;;;10.10;99.90;;;;;;5078786;28;20451;-64
2021/03/13 10:59:30;;;;;;;10.67;2.00;;;9.80;99.90;;;;;;5073293;28;20526;-63
2021/03/13 11:01:57;;;;;;;8.77;2.53;;;10.90;99.90;;;;;;5059959;28;20526;-66
2021/03/13 11:04:23;;;;;;;5.17;1.40;;;12.50;99.90;;;;;;5073387;28;20550;-65
2021/03/13 11:06:53;;;;;;;8.40;2.13;;;13.30;99.90;;;;;;5073493;28;20875;-65
2021/03/13 11:09:20;;;;;;;11.00;2.40;;;14.30;99.90;;;;;;5074210;28;20475;-65
2021/03/13 11:11:46;;;;;;;8.20;2.37;;;16.30;99.90;;;;;;5077043;28;20447;-65
2021/03/13 11:14:12;;;;;;;9.17;2.07;;;17.40;99.90;;;;;;5078027;28;20485;-65
2021/03/13 11:16:39;;;;;;;9.23;2.20;;;17.00;99.90;;;;;;5073520;28;20534;-67
2021/03/13 11:19:08;;;;;;;8.50;2.00;;;15.20;99.90;;;;;;5072104;28;20577;-64
2021/03/13 11:21:35;;;;;;;12.93;2.60;;;13.30;99.90;;;;;;5070222;28;20601;-65
2021/03/13 11:24:02;;;;;;;11.40;2.40;;;13.20;99.90;;;;;;5083390;28;20462;-64
2021/03/13 11:26:28;;;;;;;10.83;3.30;;;12.30;99.90;;;;;;5072533;28;20534;-65
2021/03/13 11:28:55;;;;;;;15.40;2.03;;;11.30;99.90;;;;;;5075556;28;20443;-67
2021/03/13 11:31:21;;;;;;;11.93;2.13;;;10.10;99.90;;;;;;5075681;28;20443;-64
2021/03/13 11:33:48;;;;;;;12.00;2.27;;;9.00;99.90;;;;;;5084961;28;20481;-64
2021/03/13 11:36:16;;;;;;;10.73;1.70;;;10.00;99.90;;;;;;5073108;28;20451;-63
2021/03/13 11:38:43;;;;;;;8.90;1.87;;;12.70;99.90;;;;;;5073332;28;20538;-65
2021/03/13 11:41:10;;;;;;;8.77;2.40;;;15.50;99.90;;;;;;5077581;28;20534;-66
2021/03/13 11:43:40;;;;;;;7.30;2.00;;;17.40;99.90;;;;;;5073029;28;20783;-64
2021/03/13 11:46:07;;;;;;;7.80;2.17;;;19.10;99.90;;;;;;5072703;28;20451;-65
2021/03/13 11:48:33;;;;;;;9.80;2.53;;;18.50;99.90;;;;;;5066257;28;20466;-66
2021/03/13 11:51:00;;;;;;;7.40;2.20;;;16.90;99.90;;;;;;5077032;28;20851;-65
2021/03/13 11:53:27;;;;;;;9.70;2.00;;;17.90;99.90;;;;;;5081870;28;20866;-67
2021/03/13 11:55:54;;;;;;;6.90;2.10;;;19.30;99.90;;;;;;5077912;28;20530;-66
2021/03/13 11:58:20;;;;;;;10.13;2.47;;;19.30;99.90;;;;;;5085032;28;20533;-65
2021/03/13 12:00:46;;;;;;;10.13;2.67;;;17.90;99.90;;;;;;5072967;28;20513;-69
2021/03/13 12:03:13;;;;;;;10.23;2.53;;;16.20;99.90;;;;;;5076902;28;20895;-64
2021/03/13 12:05:39;;;;;;;10.63;2.70;;;14.10;99.90;;;;;;5075360;28;20447;-69
2021/03/13 12:08:06;;;;;;;9.50;2.17;;;13.00;99.90;;;;;;5069366;28;20550;-64
2021/03/13 12:10:33;;;;;;;11.43;2.33;;;12.10;99.90;;;;;;5078475;28;20526;-65
2021/03/13 12:13:00;;;;;;;14.13;2.40;;;11.10;99.90;;;;;;5072934;28;20842;-64
2021/03/13 12:15:26;;;;;;;15.67;2.40;;;10.60;99.90;;;;;;5072226;28;20485;-64
2021/03/13 12:17:53;;;;;;;12.40;2.40;;;11.10;99.90;;;;;;5075001;28;20967;-64
2021/03/13 12:20:19;;;;;;;13.60;2.13;;;13.40;99.90;;;;;;5072610;28;20450;-64
2021/03/13 12:22:46;;;;;;;12.67;2.43;;;15.20;99.90;;;;;;5071093;28;20451;-64
2021/03/13 12:25:12;;;;;;;11.93;3.03;;;16.80;99.90;;;;;;5074388;28;20504;-65
2021/03/13 12:27:40;;;;;;;5.97;2.10;;;17.70;99.90;;;;;;5058266;28;20439;-64
2021/03/13 12:30:08;;;;;;;9.80;2.40;;;18.20;99.90;;;;;;5066446;28;20534;-65
2021/03/13 12:32:35;;;;;;;11.30;2.80;;;17.60;99.90;;;;;;5080456;28;20534;-65
2021/03/13 12:35:02;;;;;;;7.50;2.80;;;18.40;99.90;;;;;;5080141;28;20504;-65
2021/03/13 12:37:29;;;;;;;9.13;2.30;;;17.00;99.90;;;;;;5084919;28;20491;-67
2021/03/13 12:39:55;;;;;;;9.00;2.60;;;18.00;99.90;;;;;;5072842;28;20541;-69
2021/03/13 12:42:21;;;;;;;12.33;3.00;;;20.20;99.90;;;;;;5071120;28;21020;-67
2021/03/13 12:44:49;;;;;;;8.23;2.30;;;18.80;97.10;;;;;;5071708;28;20443;-65
2021/03/13 12:47:15;;;;;;;13.83;2.73;;;16.20;99.90;;;;;;5071404;28;20887;-67
2021/03/13 12:49:42;;;;;;;8.37;2.90;;;14.40;99.90;;;;;;5079046;28;20446;-67
2021/03/13 12:52:08;;;;;;;10.50;2.93;;;12.10;99.90;;;;;;5074314;28;20522;-64
2021/03/13 12:54:34;;;;;;;15.50;2.40;;;10.80;99.90;;;;;;5065619;28;20570;-64
2021/03/13 12:57:01;;;;;;;10.03;2.10;;;9.00;99.90;;;;;;5071471;28;20449;-68
2021/03/13 12:59:27;;;;;;;12.37;2.20;;;8.80;99.90;;;;;;5071937;28;20443;-65
2021/03/13 13:01:54;;;;;;;9.63;2.50;;;10.20;99.90;;;;;;5071951;28;20486;-64
2021/03/13 13:04:21;;;;;;;11.80;2.80;;;10.70;99.90;;;;;;5072187;28;20497;-64